createdAt,value
2023-01-27T00:00:06.233Z,11.43
2023-01-27T00:02:33.286Z,11.13
2023-01-27T00:05:00.448Z,9.93
2023-01-27T00:07:27.134Z,8.87
2023-01-27T00:09:55.967Z,8.27
2023-01-27T00:12:43.438Z,9.30
2023-01-27T00:15:11.811Z,9.83
2023-01-27T00:17:38.540Z,9.73
2023-01-27T00:20:07.028Z,9.03
2023-01-27T00:23:04.696Z,9.47
2023-01-27T00:25:32.272Z,10.07
2023-01-27T00:27:58.955Z,10.03
2023-01-27T00:30:25.659Z,10.00
2023-01-27T00:33:10.819Z,12.70
2023-01-27T00:35:37.550Z,10.43
2023-01-27T00:38:04.217Z,11.77
2023-01-27T00:40:30.904Z,9.47
2023-01-27T00:42:57.581Z,11.00
2023-01-27T00:45:43.036Z,11.87
2023-01-27T00:48:09.739Z,11.73
2023-01-27T00:50:36.442Z,14.30
2023-01-27T00:53:03.126Z,11.43
2023-01-27T00:55:30.500Z,12.63
2023-01-27T00:57:59.242Z,12.50
2023-01-27T01:00:25.909Z,12.13
2023-01-27T01:02:52.712Z,11.83
2023-01-27T01:05:19.427Z,11.43
2023-01-27T01:07:46.112Z,13.93
2023-01-27T01:10:13.098Z,12.60
2023-01-27T01:12:39.952Z,13.40
2023-01-27T01:15:07.111Z,9.37
2023-01-27T01:17:33.783Z,12.30
2023-01-27T01:20:00.479Z,12.20
2023-01-27T01:22:27.205Z,12.77
2023-01-27T01:24:53.897Z,12.67
2023-01-27T01:27:20.618Z,14.97
2023-01-27T01:29:47.430Z,12.63
2023-01-27T01:32:14.204Z,13.17
2023-01-27T01:34:43.279Z,12.87
2023-01-27T01:37:10.083Z,12.97
2023-01-27T01:39:38.102Z,11.53
2023-01-27T01:42:04.823Z,11.40
2023-01-27T01:44:32.627Z,11.57
2023-01-27T01:46:59.984Z,11.70
2023-01-27T01:49:35.363Z,11.80
2023-01-27T01:52:15.844Z,14.07
2023-01-27T01:54:47.886Z,11.73
2023-01-27T01:57:23.069Z,11.40
2023-01-27T02:00:09.211Z,13.27
2023-01-27T02:02:36.886Z,11.60
2023-01-27T02:05:37.526Z,14.07
2023-01-27T02:08:20.012Z,14.07
2023-01-27T02:10:47.852Z,14.10
2023-01-27T02:13:14.676Z,12.93
2023-01-27T02:15:41.505Z,13.67
2023-01-27T02:18:08.400Z,15.23
2023-01-27T02:20:47.288Z,13.80
2023-01-27T02:23:38.692Z,13.27
2023-01-27T02:26:29.212Z,11.13
2023-01-27T02:29:05.011Z,13.20
2023-01-27T02:31:32.541Z,10.80
2023-01-27T02:34:12.116Z,10.73
2023-01-27T02:36:55.653Z,12.70
2023-01-27T02:39:26.350Z,11.33
2023-01-27T02:41:56.731Z,11.60
2023-01-27T02:44:23.655Z,13.20
2023-01-27T02:46:50.342Z,12.23
2023-01-27T02:49:17.257Z,12.30
2023-01-27T02:51:46.638Z,11.67
2023-01-27T02:54:15.180Z,11.53
2023-01-27T02:56:41.862Z,13.63
2023-01-27T02:59:08.558Z,12.47
2023-01-27T03:01:35.535Z,14.60
2023-01-27T03:04:04.938Z,13.23
2023-01-27T03:06:31.636Z,13.53
2023-01-27T03:08:58.385Z,16.97
2023-01-27T03:11:43.798Z,15.40
2023-01-27T03:14:10.543Z,13.70
2023-01-27T03:16:55.911Z,13.37
2023-01-27T03:19:22.616Z,13.77
2023-01-27T03:21:52.776Z,13.13
2023-01-27T03:24:20.555Z,13.60
2023-01-27T03:26:47.467Z,15.27
2023-01-27T03:29:34.546Z,13.00
2023-01-27T03:32:01.223Z,14.90
2023-01-27T03:34:29.983Z,13.10
2023-01-27T03:37:16.990Z,11.70
2023-01-27T03:40:02.373Z,12.30
2023-01-27T03:42:47.887Z,13.17
2023-01-27T03:45:33.387Z,12.17
2023-01-27T03:48:02.494Z,11.73
2023-01-27T03:50:37.979Z,14.40
2023-01-27T03:53:05.813Z,14.13
2023-01-27T03:55:34.209Z,14.97
2023-01-27T03:58:14.215Z,13.60
2023-01-27T04:00:41.292Z,12.53
2023-01-27T04:03:26.489Z,13.33
2023-01-27T04:06:11.888Z,11.50
2023-01-27T04:08:38.624Z,12.27
2023-01-27T04:11:24.214Z,12.83
2023-01-27T04:13:50.874Z,17.03
2023-01-27T04:16:23.471Z,13.73
2023-01-27T04:18:50.693Z,12.50
2023-01-27T04:21:17.406Z,13.10
2023-01-27T04:23:44.093Z,14.70
2023-01-27T04:26:12.848Z,14.77
2023-01-27T04:28:44.592Z,13.73
2023-01-27T04:31:11.970Z,12.13
2023-01-27T04:33:38.844Z,13.13
2023-01-27T04:36:06.044Z,13.27
2023-01-27T04:38:33.028Z,14.90
2023-01-27T04:40:59.812Z,16.03
2023-01-27T04:43:26.896Z,14.80
2023-01-27T04:45:53.702Z,15.90
2023-01-27T04:48:20.441Z,13.23
2023-01-27T04:50:47.259Z,13.63
2023-01-27T04:53:13.934Z,16.13
2023-01-27T04:55:43.743Z,15.53
2023-01-27T04:58:13.338Z,16.53
2023-01-27T05:00:40.148Z,17.37
2023-01-27T05:03:09.391Z,15.03
2023-01-27T05:05:36.722Z,16.33
2023-01-27T05:08:08.285Z,13.47
2023-01-27T05:10:34.972Z,13.87
2023-01-27T05:13:02.238Z,15.00
2023-01-27T05:15:30.334Z,13.60
2023-01-27T05:17:57.067Z,15.13
2023-01-27T05:20:23.787Z,12.80
2023-01-27T05:22:51.799Z,14.33
2023-01-27T05:25:18.532Z,14.50
2023-01-27T05:27:45.531Z,14.30
2023-01-27T05:30:12.765Z,15.03
2023-01-27T05:32:39.436Z,12.27
2023-01-27T05:35:06.712Z,13.63
2023-01-27T05:37:33.471Z,15.93
2023-01-27T05:40:00.214Z,17.23
2023-01-27T05:42:26.893Z,13.67
2023-01-27T05:44:53.582Z,14.43
2023-01-27T05:47:20.329Z,13.83
2023-01-27T05:49:46.984Z,14.50
2023-01-27T05:52:13.693Z,13.30
2023-01-27T05:54:45.149Z,18.30
2023-01-27T05:57:11.825Z,16.77
2023-01-27T05:59:38.494Z,18.33
2023-01-27T06:02:05.355Z,15.13
2023-01-27T06:04:32.048Z,15.17
2023-01-27T06:06:58.783Z,17.60
2023-01-27T06:09:25.497Z,14.63
2023-01-27T06:14:35.013Z,14.93
2023-01-27T06:19:30.226Z,16.50
2023-01-27T06:27:13.962Z,14.57
2023-01-27T06:51:16.654Z,13.07
2023-01-27T06:53:43.359Z,12.33
2023-01-27T06:56:11.773Z,11.77
2023-01-27T06:58:39.625Z,12.77
2023-01-27T07:01:07.191Z,15.90
2023-01-27T07:05:59.548Z,13.27
2023-01-27T07:08:26.737Z,14.20
2023-01-27T07:10:53.456Z,11.47
2023-01-27T07:13:24.579Z,11.57
2023-01-27T07:15:55.504Z,14.53
2023-01-27T07:18:22.769Z,13.57
2023-01-27T07:20:49.539Z,11.53
2023-01-27T07:23:16.253Z,12.93
2023-01-27T07:25:44.515Z,12.70
2023-01-27T07:28:11.208Z,12.17
2023-01-27T07:30:39.152Z,11.90
2023-01-27T07:33:08.007Z,13.60
2023-01-27T07:35:36.955Z,13.50
2023-01-27T07:38:06.091Z,10.87
2023-01-27T07:40:33.045Z,12.03
2023-01-27T07:43:00.778Z,13.70
2023-01-27T07:51:14.708Z,14.10
2023-01-27T07:56:13.317Z,12.90
2023-01-27T09:17:29.671Z,11.40
2023-01-27T09:25:30.137Z,14.43
2023-01-27T09:58:07.971Z,13.83
2023-01-27T10:03:05.935Z,9.77
2023-01-27T10:08:32.369Z,12.90
2023-01-27T10:16:31.208Z,14.80
2023-01-27T10:22:00.449Z,15.50
2023-01-27T10:29:58.361Z,14.40
2023-01-27T10:40:24.835Z,16.20
2023-01-27T11:16:00.403Z,13.47
2023-01-27T11:26:43.712Z,14.17
2023-01-27T11:40:02.882Z,14.87
2023-01-27T11:44:56.245Z,13.23
2023-01-27T12:00:44.297Z,16.30
2023-01-27T12:14:06.000Z,27.43
2023-01-27T12:16:49.061Z,14.43
2023-01-27T12:19:24.003Z,15.40
2023-01-27T12:21:55.731Z,15.17
2023-01-27T12:24:28.113Z,14.47
2023-01-27T12:26:58.618Z,16.27
2023-01-27T12:29:50.520Z,15.70
2023-01-27T12:32:22.146Z,16.37
2023-01-27T12:34:53.054Z,14.67
2023-01-27T12:43:11.616Z,15.47
2023-01-27T12:45:39.028Z,14.90
2023-01-27T12:48:14.873Z,15.33
2023-01-27T12:53:31.084Z,15.40
2023-01-27T12:56:00.064Z,15.13
2023-01-27T12:58:39.248Z,16.93
2023-01-27T13:01:38.346Z,12.77
2023-01-27T13:04:21.555Z,12.43
2023-01-27T13:06:51.400Z,16.70
2023-01-27T13:09:46.471Z,13.63
2023-01-27T13:12:23.423Z,12.93
2023-01-27T13:14:55.239Z,10.77
2023-01-27T13:17:43.762Z,12.67
2023-01-27T13:20:18.248Z,13.13
2023-01-27T13:22:48.627Z,13.97
2023-01-27T13:25:23.494Z,13.47
2023-01-27T13:27:55.214Z,13.00
2023-01-27T13:30:35.148Z,13.53
2023-01-27T13:36:04.549Z,13.27
2023-01-27T13:49:32.385Z,15.37
2023-01-27T13:52:01.315Z,18.03
2023-01-27T13:54:32.426Z,16.40
2023-01-27T13:57:23.118Z,17.90
2023-01-27T14:00:00.787Z,20.30
2023-01-27T14:02:47.211Z,17.50
2023-01-27T14:05:48.143Z,16.80
2023-01-27T14:08:42.154Z,19.03
2023-01-27T14:11:48.473Z,18.13
2023-01-27T14:14:52.538Z,25.50
2023-01-27T14:17:33.630Z,20.83
2023-01-27T14:20:58.372Z,21.97
2023-01-27T14:23:30.680Z,24.30
2023-01-27T14:26:10.977Z,22.43
2023-01-27T14:29:19.151Z,19.27
2023-01-27T14:31:49.535Z,17.77
2023-01-27T14:34:53.696Z,16.70
2023-01-27T14:37:23.356Z,19.40
2023-01-27T14:40:13.480Z,15.80
2023-01-27T14:42:51.071Z,16.00
2023-01-27T14:45:21.503Z,14.83
2023-01-27T14:48:09.418Z,16.73
2023-01-27T14:51:01.042Z,18.50
2023-01-27T14:54:00.779Z,14.73
2023-01-27T14:57:14.715Z,16.23
2023-01-27T14:59:53.245Z,16.97
2023-01-27T15:02:44.084Z,14.60
2023-01-27T15:05:21.735Z,16.53
2023-01-27T15:08:09.670Z,16.80
2023-01-27T15:10:41.763Z,16.73
2023-01-27T15:13:26.798Z,18.43
2023-01-27T15:16:19.365Z,16.07
2023-01-27T15:19:07.214Z,17.00
2023-01-27T15:22:12.171Z,22.23
2023-01-27T15:25:08.432Z,16.10
2023-01-27T15:27:35.436Z,20.33
2023-01-27T15:33:45.230Z,14.83
2023-01-27T15:36:17.935Z,15.10
2023-01-27T15:39:12.853Z,15.63
2023-01-27T15:42:01.209Z,17.33
2023-01-27T15:44:34.486Z,21.63
2023-01-27T15:47:25.444Z,17.60
2023-01-27T15:50:24.452Z,23.47
2023-01-27T15:52:51.855Z,21.00
2023-01-27T15:55:47.203Z,15.93
2023-01-27T15:58:28.968Z,17.30
2023-01-27T16:00:57.149Z,19.27
2023-01-27T16:03:40.254Z,18.83
2023-01-27T16:06:15.997Z,18.27
2023-01-27T16:08:49.063Z,16.57
2023-01-27T16:11:30.748Z,19.27
2023-01-27T16:14:25.867Z,17.90
2023-01-27T16:16:52.507Z,19.50
2023-01-27T16:20:08.301Z,20.30
2023-01-27T16:22:39.129Z,16.63
2023-01-27T16:25:28.878Z,21.07
2023-01-27T16:28:23.413Z,18.57
2023-01-27T16:31:07.886Z,17.97
2023-01-27T16:33:39.018Z,20.43
2023-01-27T16:36:09.496Z,20.87
2023-01-27T16:38:41.477Z,22.13
2023-01-27T16:41:25.146Z,21.20
2023-01-27T16:44:23.523Z,21.40
2023-01-27T16:47:17.084Z,21.70
2023-01-27T16:49:46.907Z,21.80
2023-01-27T16:52:21.307Z,23.33
2023-01-27T16:54:53.377Z,21.07
2023-01-27T16:57:36.199Z,23.23
2023-01-27T17:00:11.049Z,19.40
2023-01-27T17:02:39.059Z,23.27
2023-01-27T17:05:15.429Z,23.80
2023-01-27T17:08:07.372Z,21.23
2023-01-27T17:10:35.423Z,23.33
2023-01-27T17:13:03.977Z,23.77
2023-01-27T17:15:39.907Z,22.57
2023-01-27T17:18:11.258Z,24.33
2023-01-27T17:20:42.611Z,22.27
2023-01-27T17:23:21.296Z,19.40
2023-01-27T17:25:49.084Z,22.17
2023-01-27T17:28:26.608Z,20.27
2023-01-27T17:31:06.091Z,23.13
2023-01-27T17:33:34.371Z,24.13
2023-01-27T17:36:09.910Z,22.70
2023-01-27T17:38:43.108Z,23.13
2023-01-27T17:41:34.043Z,29.80
2023-01-27T17:44:01.847Z,21.40
2023-01-27T17:46:33.835Z,23.50
2023-01-27T17:49:23.051Z,25.00
2023-01-27T17:51:55.634Z,25.27
2023-01-27T17:54:32.402Z,27.03
2023-01-27T17:57:01.789Z,25.20
2023-01-27T17:59:28.890Z,25.53
2023-01-27T18:02:00.829Z,26.37
2023-01-27T18:04:27.588Z,24.60
2023-01-27T18:06:54.504Z,27.33
2023-01-27T18:09:26.333Z,25.97
2023-01-27T18:11:59.598Z,27.87
2023-01-27T18:14:27.096Z,31.20
2023-01-27T18:17:02.172Z,27.60
2023-01-27T18:19:28.980Z,27.07
2023-01-27T18:22:22.575Z,24.57
2023-01-27T18:25:01.958Z,24.30
2023-01-27T18:27:32.775Z,29.43
2023-01-27T18:30:20.404Z,39.83
2023-01-27T18:32:51.035Z,32.67
2023-01-27T18:35:32.697Z,29.50
2023-01-27T18:38:02.933Z,30.37
2023-01-27T18:40:35.850Z,28.17
2023-01-27T18:43:05.020Z,29.83
2023-01-27T18:45:40.794Z,33.03
2023-01-27T18:48:13.672Z,28.87
2023-01-27T18:50:43.080Z,28.03
2023-01-27T18:53:17.189Z,30.20
2023-01-27T18:55:44.205Z,36.30
2023-01-27T18:58:13.808Z,47.67
2023-01-27T19:00:49.676Z,37.37
2023-01-27T19:03:19.820Z,29.70
2023-01-27T19:05:47.813Z,27.43
2023-01-27T19:08:20.363Z,23.47
2023-01-27T19:10:48.420Z,30.13
2023-01-27T19:13:16.755Z,29.13
2023-01-27T19:15:52.583Z,24.87
2023-01-27T19:18:25.853Z,24.20
2023-01-27T19:20:53.143Z,25.90
2023-01-27T19:23:20.945Z,29.57
2023-01-27T19:25:55.249Z,25.67
2023-01-27T19:28:33.550Z,24.53
2023-01-27T19:31:01.706Z,23.67
2023-01-27T19:33:33.872Z,26.73
2023-01-27T19:36:11.795Z,23.93
2023-01-27T19:38:43.636Z,23.40
2023-01-27T19:41:10.931Z,26.27
2023-01-27T19:43:40.336Z,21.73
2023-01-27T19:46:13.996Z,21.07
2023-01-27T19:48:40.879Z,20.97
2023-01-27T19:51:10.539Z,23.17
2023-01-27T19:53:37.591Z,25.33
2023-01-27T19:56:13.803Z,25.43
2023-01-27T19:58:40.926Z,35.00
2023-01-27T20:01:09.509Z,30.60
2023-01-27T20:03:36.209Z,25.73
2023-01-27T20:06:05.531Z,27.27
2023-01-27T20:08:32.227Z,23.87
2023-01-27T20:10:58.925Z,26.83
2023-01-27T20:13:26.798Z,25.20
2023-01-27T20:15:53.535Z,24.20
2023-01-27T20:18:22.794Z,26.47
2023-01-27T20:20:53.320Z,27.47
2023-01-27T20:23:20.087Z,21.73
2023-01-27T20:25:46.860Z,23.93
2023-01-27T20:28:13.591Z,23.87
2023-01-27T20:30:42.051Z,24.50
2023-01-27T20:33:10.188Z,23.90
2023-01-27T20:35:40.262Z,24.03
2023-01-27T20:38:10.317Z,26.23
2023-01-27T20:40:37.431Z,24.73
2023-01-27T20:43:04.091Z,28.37
2023-01-27T20:45:32.307Z,26.50
2023-01-27T20:47:59.702Z,29.30
2023-01-27T20:50:28.484Z,25.93
2023-01-27T20:52:55.265Z,24.77
2023-01-27T20:55:26.956Z,30.00
2023-01-27T20:57:53.683Z,26.50
2023-01-27T21:00:25.015Z,24.03
2023-01-27T21:02:51.682Z,28.90
2023-01-27T21:05:19.144Z,25.77
2023-01-27T21:07:47.740Z,24.67
2023-01-27T21:10:15.676Z,24.90
2023-01-27T21:12:42.356Z,26.13
2023-01-27T21:15:12.633Z,23.50
2023-01-27T21:17:43.050Z,19.50
2023-01-27T21:20:10.460Z,21.50
2023-01-27T21:22:37.150Z,23.47
2023-01-27T21:25:04.035Z,23.40
2023-01-27T21:27:30.708Z,17.93
2023-01-27T21:29:57.406Z,17.77
2023-01-27T21:32:26.243Z,16.40
2023-01-27T21:34:53.045Z,16.90
2023-01-27T21:37:19.761Z,15.90
2023-01-27T21:39:46.406Z,15.87
2023-01-27T21:42:14.391Z,15.93
2023-01-27T21:44:59.998Z,17.77
2023-01-27T21:47:30.519Z,20.23
2023-01-27T21:50:00.264Z,17.60
2023-01-27T21:52:35.715Z,15.97
2023-01-27T21:55:07.319Z,19.27
2023-01-27T21:57:34.808Z,16.90
2023-01-27T22:00:01.622Z,15.13
2023-01-27T22:02:29.439Z,16.37
2023-01-27T22:04:56.121Z,17.43
2023-01-27T22:07:22.821Z,15.80
2023-01-27T22:09:51.955Z,16.33
2023-01-27T22:12:18.742Z,16.00
2023-01-27T22:14:47.567Z,19.03
2023-01-27T22:17:17.365Z,18.60
2023-01-27T22:19:48.199Z,19.63
2023-01-27T22:22:16.738Z,17.33
2023-01-27T22:24:44.138Z,18.00
2023-01-27T22:27:10.835Z,17.27
2023-01-27T22:29:37.544Z,17.60
2023-01-27T22:32:04.298Z,19.47
2023-01-27T22:34:35.511Z,20.17
2023-01-27T22:37:02.253Z,22.23
2023-01-27T22:39:28.950Z,20.23
2023-01-27T22:42:03.079Z,26.23
2023-01-27T22:44:30.996Z,16.33
2023-01-27T22:46:57.686Z,18.23
2023-01-27T22:49:24.370Z,17.87
2023-01-27T22:51:55.428Z,20.93
2023-01-27T22:54:22.181Z,18.97
2023-01-27T22:56:48.877Z,19.37
2023-01-27T22:59:15.613Z,21.53
2023-01-27T23:01:42.274Z,21.20
2023-01-27T23:04:11.913Z,21.30
2023-01-27T23:06:40.300Z,20.70
2023-01-27T23:09:06.979Z,17.90
2023-01-27T23:11:35.890Z,20.13
2023-01-27T23:14:02.659Z,19.57
2023-01-27T23:16:30.988Z,23.20
2023-01-27T23:18:57.723Z,20.20
2023-01-27T23:21:24.424Z,21.80
2023-01-27T23:23:51.350Z,23.53
2023-01-27T23:26:18.075Z,18.73
2023-01-27T23:28:47.295Z,20.07
2023-01-27T23:31:17.050Z,19.27
2023-01-27T23:33:51.891Z,19.63
2023-01-27T23:36:18.643Z,18.30
2023-01-27T23:38:47.450Z,18.43
2023-01-27T23:41:18.253Z,23.17
2023-01-27T23:43:52.064Z,18.97
2023-01-27T23:46:19.554Z,21.07
2023-01-27T23:48:57.739Z,21.97
2023-01-27T23:51:24.469Z,20.30
2023-01-27T23:53:51.260Z,20.27
2023-01-27T23:56:19.921Z,22.67
2023-01-27T23:58:47.313Z,16.33
